Time;durP1;ratioP1;P1;durP2;ratioP2;P2;SDS_P1;SDS_P2;PMS_P1;PMS_P2;Temp;Humidity;BMP_temperature;BMP_pressure;BME280_temperature;BME280_humidity;BME280_pressure;Samples;Min_cycle;Max_cycle;Signal;HPM_P1;HPM_P2
2022/07/28 00:04:50;;;;;;;4.10;3.70;;;22.40;63.90;;;;;;10473302;28;20232;-79
2022/07/28 00:09:54;;;;;;;3.80;3.60;;;22.30;62.60;;;;;;10472424;28;20210;-80
2022/07/28 00:14:56;;;;;;;3.87;3.67;;;22.30;62.90;;;;;;10455801;28;20217;-79
2022/07/28 00:19:58;;;;;;;3.70;3.40;;;22.20;63.00;;;;;;10469230;28;20272;-81
2022/07/28 00:25:02;;;;;;;4.23;3.80;;;22.10;63.00;;;;;;10455595;28;20243;-81
2022/07/28 00:30:05;;;;;;;4.10;3.70;;;22.10;62.70;;;;;;10465911;28;20278;-80
2022/07/28 00:35:08;;;;;;;4.10;3.80;;;22.00;62.70;;;;;;10462144;28;20216;-81
2022/07/28 00:40:12;;;;;;;4.40;4.10;;;22.00;63.20;;;;;;10461601;28;20264;-80
2022/07/28 00:45:14;;;;;;;5.30;3.70;;;21.90;61.90;;;;;;10459987;28;20696;-80
2022/07/28 00:50:18;;;;;;;4.83;4.13;;;21.80;61.90;;;;;;10459459;28;20221;-79
2022/07/28 00:55:23;;;;;;;5.70;3.50;;;21.70;63.00;;;;;;10460851;28;20231;-81
2022/07/28 01:00:25;;;;;;;4.10;3.80;;;21.60;63.40;;;;;;10459115;28;20292;-79
2022/07/28 01:05:37;;;;;;;4.63;4.13;;;21.50;63.40;;;;;;10454686;28;20227;-80
2022/07/28 01:10:49;;;;;;;5.50;4.07;;;21.40;62.80;;;;;;10442836;28;20229;-80
2022/07/28 01:15:57;;;;;;;4.20;4.00;;;21.40;63.30;;;;;;10463726;28;20680;-80
2022/07/28 01:21:04;;;;;;;4.30;4.07;;;21.30;63.00;;;;;;10460166;28;20223;-80
2022/07/28 01:26:18;;;;;;;4.27;3.97;;;21.20;64.10;;;;;;10458541;28;20649;-79
2022/07/28 01:31:26;;;;;;;4.10;3.80;;;21.20;64.40;;;;;;10456352;28;20708;-81
2022/07/28 01:36:32;;;;;;;4.27;4.00;;;21.20;64.80;;;;;;10464965;28;20278;-80
2022/07/28 01:41:36;;;;;;;4.27;3.87;;;21.10;63.10;;;;;;10463890;28;20228;-80
2022/07/28 01:46:40;;;;;;;4.47;4.17;;;21.00;63.60;;;;;;10465222;28;20233;-80
2022/07/28 01:51:44;;;;;;;4.70;4.30;;;21.00;64.70;;;;;;10469565;28;20221;-79
2022/07/28 01:56:48;;;;;;;4.03;3.73;;;20.90;64.10;;;;;;10460847;28;20201;-80
2022/07/28 02:01:53;;;;;;;5.30;3.50;;;20.90;63.80;;;;;;10462223;28;20256;-79
2022/07/28 02:06:56;;;;;;;4.87;4.17;;;20.80;65.50;;;;;;10462192;28;20608;-80
2022/07/28 02:12:00;;;;;;;3.90;3.70;;;20.80;64.50;;;;;;10458814;28;20251;-80
2022/07/28 02:17:09;;;;;;;5.10;4.70;;;20.70;64.10;;;;;;10453357;28;20198;-79
2022/07/28 02:22:12;;;;;;;4.83;4.27;;;20.70;63.80;;;;;;10459686;28;20233;-81
2022/07/28 02:27:20;;;;;;;4.67;4.27;;;20.50;64.60;;;;;;10453454;28;20293;-80
2022/07/28 02:32:31;;;;;;;4.40;4.10;;;20.50;65.30;;;;;;10462914;28;20252;-80
2022/07/28 02:37:37;;;;;;;4.00;3.70;;;20.50;65.50;;;;;;10461176;28;20653;-80
2022/07/28 02:42:41;;;;;;;4.37;4.07;;;20.40;65.50;;;;;;10458431;28;20216;-80
2022/07/28 02:47:49;;;;;;;4.50;4.20;;;20.40;65.70;;;;;;10457030;28;20252;-80
2022/07/28 02:52:55;;;;;;;4.53;4.23;;;20.40;64.30;;;;;;10459301;28;20263;-80
2022/07/28 02:57:59;;;;;;;3.70;3.40;;;20.40;65.90;;;;;;10440861;28;20226;-80
2022/07/28 03:03:04;;;;;;;4.73;4.43;;;20.30;65.00;;;;;;10459915;28;20315;-80
2022/07/28 03:08:06;;;;;;;3.87;3.57;;;20.30;66.40;;;;;;10459775;28;20649;-80
2022/07/28 03:13:08;;;;;;;3.90;3.80;;;20.20;66.70;;;;;;10459817;28;20260;-80
2022/07/28 03:18:11;;;;;;;5.23;4.93;;;20.20;65.60;;;;;;10456025;28;20688;-79
2022/07/28 03:23:14;;;;;;;5.73;4.90;;;20.20;67.20;;;;;;10467306;28;20209;-79
2022/07/28 03:28:19;;;;;;;4.57;4.27;;;20.20;66.20;;;;;;10457069;28;20648;-80
2022/07/28 03:33:23;;;;;;;4.73;4.47;;;20.10;67.10;;;;;;10460158;28;20233;-80
2022/07/28 03:38:31;;;;;;;5.20;4.90;;;20.10;66.30;;;;;;10467582;28;20243;-79
2022/07/28 03:43:34;;;;;;;6.40;5.20;;;20.20;68.10;;;;;;10449400;28;20243;-80
2022/07/28 03:48:38;;;;;;;5.30;4.80;;;20.20;67.90;;;;;;10461556;28;20290;-79
2022/07/28 03:53:41;;;;;;;5.90;5.57;;;20.10;67.20;;;;;;10463371;28;20266;-78
2022/07/28 03:58:43;;;;;;;5.80;5.20;;;20.10;67.00;;;;;;10463937;28;20193;-79
2022/07/28 04:03:46;;;;;;;6.10;5.40;;;20.10;67.10;;;;;;10456801;28;20764;-78
2022/07/28 04:08:49;;;;;;;5.90;5.40;;;20.10;67.30;;;;;;10458255;28;20591;-79
2022/07/28 04:13:51;;;;;;;5.40;5.00;;;20.10;67.80;;;;;;10456385;28;20248;-79
2022/07/28 04:18:54;;;;;;;5.90;5.50;;;20.10;67.50;;;;;;10455591;28;20240;-78
2022/07/28 04:23:56;;;;;;;6.73;6.33;;;20.00;68.00;;;;;;10458391;28;20232;-80
2022/07/28 04:28:58;;;;;;;6.07;5.70;;;20.10;67.20;;;;;;10466170;28;20197;-79
2022/07/28 04:34:02;;;;;;;5.87;5.37;;;20.10;67.60;;;;;;10465077;28;20585;-80
2022/07/28 04:39:04;;;;;;;5.40;5.00;;;20.10;67.10;;;;;;10466753;28;20281;-80
2022/07/28 04:44:06;;;;;;;6.30;5.90;;;20.20;66.40;;;;;;10469910;28;20213;-77
2022/07/28 04:49:10;;;;;;;6.00;5.50;;;20.20;66.70;;;;;;10461733;28;20431;-79
2022/07/28 04:54:12;;;;;;;5.83;5.40;;;20.20;66.30;;;;;;10458894;28;20233;-79
2022/07/28 04:59:14;;;;;;;5.37;4.80;;;20.20;68.20;;;;;;10459081;28;20189;-79
2022/07/28 05:04:18;;;;;;;5.73;5.33;;;20.20;67.90;;;;;;10467833;28;20283;-78
2022/07/28 05:09:21;;;;;;;5.70;5.10;;;20.20;68.30;;;;;;10455345;28;20235;-79
2022/07/28 05:14:23;;;;;;;5.50;5.10;;;20.30;68.30;;;;;;10457267;28;20231;-79
2022/07/28 05:19:26;;;;;;;5.67;5.27;;;20.40;68.60;;;;;;10457937;28;20205;-79
2022/07/28 05:24:28;;;;;;;5.50;5.20;;;20.40;68.60;;;;;;10456454;28;20225;-79
2022/07/28 05:29:31;;;;;;;5.97;5.60;;;20.50;67.60;;;;;;10439460;28;20197;-79
2022/07/28 05:34:34;;;;;;;5.33;4.83;;;20.70;66.00;;;;;;10458679;28;20225;-79
2022/07/28 05:39:36;;;;;;;5.43;5.13;;;20.80;66.40;;;;;;10461370;28;20229;-79
2022/07/28 05:44:38;;;;;;;5.40;5.00;;;20.80;67.20;;;;;;10443486;28;20227;-79
2022/07/28 05:49:42;;;;;;;14.40;5.90;;;20.90;65.40;;;;;;10458246;28;20201;-78
2022/07/28 05:54:44;;;;;;;6.67;6.03;;;21.00;66.00;;;;;;10460225;28;20263;-78
2022/07/28 05:59:46;;;;;;;6.47;5.90;;;21.00;66.20;;;;;;10458367;28;20235;-79
2022/07/28 06:05:02;;;;;;;6.37;5.97;;;21.00;66.20;;;;;;10701133;27;20557;-80
2022/07/28 06:10:05;;;;;;;6.87;6.33;;;21.10;65.40;;;;;;10660808;27;20673;-80
2022/07/28 06:15:11;;;;;;;6.90;6.50;;;21.10;66.50;;;;;;10642331;27;20322;-80
2022/07/28 06:20:15;;;;;;;6.00;5.70;;;21.20;65.90;;;;;;10634502;27;20219;-81
2022/07/28 06:25:19;;;;;;;5.97;5.47;;;21.30;67.40;;;;;;10661067;27;20270;-80
2022/07/28 06:30:22;;;;;;;5.57;5.13;;;21.40;67.00;;;;;;10661310;27;20224;-80
2022/07/28 06:35:26;;;;;;;6.70;6.10;;;21.50;67.10;;;;;;10642476;27;20214;-79
2022/07/28 06:40:30;;;;;;;9.40;6.60;;;21.60;67.50;;;;;;10642927;27;20237;-80
2022/07/28 06:45:32;;;;;;;7.60;7.00;;;21.70;67.60;;;;;;10652631;27;20610;-80
2022/07/28 06:50:38;;;;;;;7.57;6.97;;;21.90;66.10;;;;;;10661568;27;20214;-80
2022/07/28 06:55:40;;;;;;;6.80;6.37;;;22.00;66.60;;;;;;10655026;27;20186;-81
2022/07/28 07:00:42;;;;;;;7.73;6.93;;;22.10;66.60;;;;;;10649803;22;20210;-80
2022/07/28 07:05:45;;;;;;;7.57;7.07;;;22.30;66.60;;;;;;10550634;28;20200;-80
2022/07/28 07:10:47;;;;;;;7.20;6.70;;;22.40;66.80;;;;;;10554259;28;20694;-80
2022/07/28 07:15:49;;;;;;;7.40;6.73;;;22.60;67.00;;;;;;10511343;28;20590;-80
2022/07/28 07:20:53;;;;;;;7.70;6.70;;;22.80;65.70;;;;;;10488854;28;20227;-80
2022/07/28 07:25:55;;;;;;;9.20;6.70;;;22.80;66.50;;;;;;10537190;28;20208;-80
2022/07/28 07:30:57;;;;;;;7.50;6.90;;;23.00;66.70;;;;;;10538549;28;20230;-80
2022/07/28 07:36:01;;;;;;;7.70;7.20;;;23.30;66.70;;;;;;10546119;28;20238;-80
2022/07/28 07:41:03;;;;;;;8.30;7.80;;;23.50;66.70;;;;;;10550708;28;20216;-79
2022/07/28 07:46:06;;;;;;;8.73;8.03;;;23.80;65.60;;;;;;10564104;28;20644;-80
2022/07/28 07:51:10;;;;;;;8.50;8.00;;;23.90;65.80;;;;;;10535713;28;20227;-80
2022/07/28 07:56:13;;;;;;;9.53;8.73;;;24.00;66.10;;;;;;10537376;28;20191;-80
2022/07/28 08:01:16;;;;;;;8.30;7.60;;;24.20;65.70;;;;;;10550737;28;20249;-80
2022/07/28 08:06:19;;;;;;;7.73;7.17;;;24.40;65.10;;;;;;10544273;28;20196;-80
2022/07/28 08:11:21;;;;;;;9.70;9.00;;;24.50;65.50;;;;;;10539589;28;20216;-80
2022/07/28 08:16:23;;;;;;;8.83;8.33;;;24.80;65.40;;;;;;10539469;28;20215;-80
2022/07/28 08:21:27;;;;;;;9.50;8.57;;;25.00;65.80;;;;;;10531905;28;20219;-80
2022/07/28 08:26:29;;;;;;;9.63;8.90;;;25.30;64.60;;;;;;10540664;28;20234;-80
2022/07/28 08:31:32;;;;;;;9.30;8.63;;;25.50;64.30;;;;;;10538985;28;20733;-80
2022/07/28 08:36:35;;;;;;;8.37;7.87;;;25.70;63.90;;;;;;10541963;28;20223;-80
2022/07/28 08:41:46;;;;;;;8.93;8.17;;;26.10;63.60;;;;;;10538263;28;20262;-80
2022/07/28 08:46:48;;;;;;;9.40;8.80;;;26.40;62.80;;;;;;10540497;28;20196;-80
2022/07/28 08:51:55;;;;;;;7.83;7.37;;;26.90;62.70;;;;;;10541089;28;20218;-80
2022/07/28 08:56:58;;;;;;;8.50;7.70;;;27.40;61.70;;;;;;10540451;28;20237;-81
2022/07/28 09:02:01;;;;;;;8.20;7.40;;;27.90;60.50;;;;;;10522623;28;20234;-81
2022/07/28 09:07:05;;;;;;;7.77;7.10;;;28.30;60.20;;;;;;10504202;28;20680;-80
2022/07/28 09:12:08;;;;;;;8.83;8.20;;;28.70;59.50;;;;;;10507520;28;20217;-78
2022/07/28 09:17:10;;;;;;;7.27;6.77;;;29.30;58.30;;;;;;10538244;28;20231;-78
2022/07/28 09:22:14;;;;;;;7.47;6.97;;;29.50;58.80;;;;;;10515748;28;20310;-79
2022/07/28 09:27:16;;;;;;;7.70;7.10;;;29.70;57.90;;;;;;10518793;28;20201;-79
2022/07/28 09:32:20;;;;;;;8.40;7.67;;;29.60;58.20;;;;;;10523504;28;20215;-79
2022/07/28 09:37:26;;;;;;;8.30;7.70;;;29.90;57.50;;;;;;10534194;28;20291;-79
2022/07/28 09:42:45;;;;;;;8.20;7.57;;;30.10;57.80;;;;;;10535971;28;20590;-80
2022/07/28 09:47:47;;;;;;;8.60;7.90;;;30.40;56.70;;;;;;10523110;28;20233;-80
2022/07/28 09:52:51;;;;;;;7.50;7.10;;;30.70;56.90;;;;;;10514233;28;20644;-80
2022/07/28 09:57:54;;;;;;;7.50;7.10;;;30.80;56.50;;;;;;10506867;28;20191;-79
2022/07/28 10:02:56;;;;;;;8.17;7.63;;;31.00;56.10;;;;;;10534432;28;20231;-79
2022/07/28 10:08:00;;;;;;;8.53;7.93;;;31.20;55.60;;;;;;10529860;28;20192;-80
2022/07/28 10:13:05;;;;;;;8.50;7.90;;;31.70;55.60;;;;;;10510721;28;20691;-80
2022/07/28 10:18:07;;;;;;;8.40;7.80;;;32.20;54.40;;;;;;10535413;28;20207;-80
2022/07/28 10:23:12;;;;;;;9.43;8.63;;;32.30;54.70;;;;;;10525257;28;20228;-79
2022/07/28 10:28:20;;;;;;;7.60;7.10;;;32.30;54.20;;;;;;10527800;28;20684;-79
2022/07/28 10:33:23;;;;;;;7.87;7.17;;;31.70;55.50;;;;;;10517339;28;20224;-80
2022/07/28 10:38:28;;;;;;;7.77;7.23;;;31.20;54.90;;;;;;10521682;28;20304;-79
2022/07/28 10:43:32;;;;;;;8.43;7.83;;;30.60;56.70;;;;;;10516696;28;20223;-79
2022/07/28 10:48:36;;;;;;;8.40;7.90;;;30.00;57.20;;;;;;10535451;28;20245;-79
2022/07/28 10:53:45;;;;;;;7.80;7.20;;;29.50;58.00;;;;;;10512569;28;20224;-80
2022/07/28 10:58:57;;;;;;;9.00;8.30;;;29.20;58.90;;;;;;10546044;28;20196;-80
2022/07/28 11:03:59;;;;;;;8.97;8.13;;;29.00;57.60;;;;;;10537976;28;20311;-79
2022/07/28 11:09:22;;;;;;;8.60;8.00;;;28.90;59.30;;;;;;10542143;28;20303;-79
2022/07/28 11:14:34;;;;;;;7.70;7.20;;;28.80;60.80;;;;;;10543826;28;20279;-79
2022/07/28 11:19:54;;;;;;;8.10;7.60;;;28.70;58.20;;;;;;10543438;28;20322;-79
2022/07/28 11:25:17;;;;;;;6.90;6.50;;;28.60;59.50;;;;;;10505038;28;20230;-80
2022/07/28 11:30:53;;;;;;;7.60;7.10;;;28.60;58.00;;;;;;10522864;28;20241;-79
2022/07/28 11:35:59;;;;;;;8.57;7.93;;;28.70;56.60;;;;;;10540394;28;20192;-79
2022/07/28 11:41:23;;;;;;;8.40;7.80;;;28.60;57.20;;;;;;10519973;28;20212;-79
2022/07/28 11:46:25;;;;;;;9.20;8.60;;;28.60;57.90;;;;;;10539055;28;20216;-80
2022/07/28 11:51:30;;;;;;;9.60;8.90;;;28.80;57.80;;;;;;10520584;28;20282;-80
2022/07/28 11:56:36;;;;;;;7.30;6.90;;;29.00;56.30;;;;;;10541323;28;20299;-80
2022/07/28 12:01:50;;;;;;;9.23;7.67;;;29.00;56.20;;;;;;10525710;28;20234;-79
2022/07/28 12:06:52;;;;;;;8.40;7.70;;;29.20;56.80;;;;;;10539281;28;20192;-79
2022/07/28 12:11:56;;;;;;;7.13;6.53;;;29.10;55.90;;;;;;10513389;28;20250;-79
2022/07/28 12:16:58;;;;;;;8.13;7.63;;;29.00;55.80;;;;;;10527967;28;20614;-79
2022/07/28 12:22:00;;;;;;;7.10;6.60;;;29.00;55.20;;;;;;10516171;28;20348;-78
2022/07/28 12:27:04;;;;;;;6.20;5.83;;;29.00;55.90;;;;;;10504252;28;20196;-80
2022/07/28 12:32:08;;;;;;;7.60;7.00;;;29.00;55.40;;;;;;10527219;28;20648;-79
2022/07/28 12:37:14;;;;;;;7.50;7.07;;;29.00;55.50;;;;;;10537309;28;20247;-79
2022/07/28 12:42:18;;;;;;;7.30;6.67;;;29.00;55.50;;;;;;10520561;28;20208;-79
2022/07/28 12:47:26;;;;;;;6.53;6.23;;;29.10;54.10;;;;;;10514295;28;20650;-80
2022/07/28 12:52:28;;;;;;;9.27;7.20;;;29.20;55.20;;;;;;10535688;28;20220;-80
2022/07/28 12:57:42;;;;;;;6.50;6.10;;;29.20;53.90;;;;;;10522119;28;20250;-79
2022/07/28 13:02:44;;;;;;;6.60;6.20;;;29.20;55.40;;;;;;10524623;22;20301;-78
2022/07/28 13:07:46;;;;;;;7.80;7.40;;;29.30;54.20;;;;;;10434389;28;20565;-80
2022/07/28 13:13:00;;;;;;;7.33;6.93;;;29.40;54.00;;;;;;10457287;28;20603;-80
2022/07/28 13:18:03;;;;;;;7.00;6.60;;;29.50;54.60;;;;;;10457621;28;20201;-79
2022/07/28 13:23:06;;;;;;;7.57;7.17;;;29.60;53.80;;;;;;10458183;28;20327;-79
2022/07/28 13:28:25;;;;;;;6.87;6.57;;;29.60;53.20;;;;;;10460321;28;20209;-79
2022/07/28 13:33:36;;;;;;;7.53;6.90;;;29.60;54.70;;;;;;10463704;28;20219;-79
2022/07/28 13:38:38;;;;;;;6.77;6.27;;;29.60;55.20;;;;;;10466207;28;20236;-80
2022/07/28 13:43:41;;;;;;;7.23;6.73;;;29.70;54.50;;;;;;10452765;28;20453;-80
2022/07/28 13:48:44;;;;;;;7.70;7.00;;;29.60;54.30;;;;;;10464254;28;20211;-80
2022/07/28 13:53:47;;;;;;;6.63;6.13;;;29.60;54.00;;;;;;10463125;28;20241;-80
2022/07/28 13:58:50;;;;;;;8.27;7.57;;;29.50;53.60;;;;;;10467397;28;20208;-80
2022/07/28 14:03:53;;;;;;;7.00;6.50;;;29.50;54.30;;;;;;10466611;28;20308;-80
2022/07/28 14:08:55;;;;;;;7.90;7.30;;;29.40;53.40;;;;;;10464713;28;20205;-80
2022/07/28 14:14:03;;;;;;;6.70;6.30;;;29.30;53.60;;;;;;10447119;28;20247;-80
2022/07/28 14:19:05;;;;;;;6.60;6.20;;;29.10;54.20;;;;;;10477246;28;20283;-80
2022/07/28 14:24:08;;;;;;;8.13;7.63;;;29.00;54.00;;;;;;10468066;28;20278;-80
2022/07/28 14:29:11;;;;;;;7.47;7.07;;;28.90;55.30;;;;;;10462354;28;20271;-79
2022/07/28 14:34:13;;;;;;;7.00;6.50;;;28.80;54.00;;;;;;10471729;28;20292;-80
2022/07/28 14:39:16;;;;;;;7.47;6.97;;;28.70;54.90;;;;;;10469897;28;20235;-80
2022/07/28 14:44:19;;;;;;;6.67;6.17;;;28.80;53.70;;;;;;10472871;28;20225;-80
2022/07/28 14:49:21;;;;;;;6.73;6.23;;;28.70;53.50;;;;;;10472030;28;20659;-80
2022/07/28 14:54:23;;;;;;;8.03;6.93;;;28.70;52.60;;;;;;10456668;28;20258;-79
2022/07/28 14:59:27;;;;;;;7.07;6.57;;;28.50;53.50;;;;;;10461910;28;20205;-79
2022/07/28 15:04:31;;;;;;;6.67;6.27;;;28.50;53.00;;;;;;10473052;28;20213;-79
2022/07/28 15:09:33;;;;;;;7.40;6.90;;;28.50;52.50;;;;;;10459666;28;20739;-79
2022/07/28 15:14:37;;;;;;;6.80;6.40;;;28.50;52.50;;;;;;10456601;28;20244;-79
2022/07/28 15:19:39;;;;;;;5.83;5.43;;;28.50;54.70;;;;;;10473045;28;20918;-79
2022/07/28 15:24:41;;;;;;;5.67;5.37;;;28.40;53.50;;;;;;10474939;28;20740;-79
2022/07/28 15:29:46;;;;;;;7.00;6.50;;;28.40;54.80;;;;;;10451502;28;20223;-79
2022/07/28 15:34:48;;;;;;;8.90;6.50;;;28.40;55.30;;;;;;10477790;28;20209;-79
2022/07/28 15:39:50;;;;;;;6.53;6.13;;;28.30;55.40;;;;;;10475625;28;20201;-79
2022/07/28 15:44:54;;;;;;;7.87;7.47;;;28.30;54.70;;;;;;10461179;28;20252;-79
2022/07/28 15:49:56;;;;;;;6.77;4.90;;;28.30;54.50;;;;;;10463850;28;20276;-79
2022/07/28 15:54:58;;;;;;;5.83;5.53;;;28.40;53.60;;;;;;10462792;28;20892;-79
2022/07/28 16:00:01;;;;;;;6.30;5.70;;;28.40;54.10;;;;;;10457309;28;20724;-79
2022/07/28 16:05:04;;;;;;;6.40;6.00;;;28.40;52.70;;;;;;10438470;28;20228;-81
2022/07/28 16:10:07;;;;;;;8.17;6.23;;;28.30;53.10;;;;;;10457543;28;20205;-80
2022/07/28 16:15:11;;;;;;;6.87;6.47;;;28.30;53.00;;;;;;10448649;28;20684;-79
2022/07/28 16:20:13;;;;;;;5.97;5.67;;;28.30;53.00;;;;;;10468274;28;20263;-78
2022/07/28 16:25:18;;;;;;;6.67;6.27;;;28.30;51.40;;;;;;10470554;28;20221;-79
2022/07/28 16:30:22;;;;;;;5.87;5.47;;;28.40;51.40;;;;;;10467604;28;20201;-79
2022/07/28 16:35:24;;;;;;;6.03;5.73;;;28.30;53.80;;;;;;10463981;28;20651;-79
2022/07/28 16:40:27;;;;;;;6.50;6.10;;;28.30;55.90;;;;;;10458467;28;20244;-79
2022/07/28 16:45:30;;;;;;;6.47;6.07;;;28.20;52.50;;;;;;10456806;28;20224;-79
2022/07/28 16:50:33;;;;;;;6.00;5.60;;;28.20;53.30;;;;;;10464375;28;20350;-80
2022/07/28 16:56:26;;;;;;;6.90;6.40;;;28.10;53.80;;;;;;10469498;28;20213;-79
2022/07/28 17:01:57;;;;;;;5.30;5.00;;;27.90;55.50;;;;;;10440260;28;21014;-81
2022/07/28 17:06:59;;;;;;;5.83;5.43;;;27.80;54.80;;;;;;10464334;28;20221;-81
2022/07/28 17:12:01;;;;;;;6.37;6.07;;;27.70;56.20;;;;;;10472668;28;20740;-81
2022/07/28 17:17:05;;;;;;;5.87;5.00;;;27.60;57.70;;;;;;10465241;28;20251;-81
2022/07/28 17:22:07;;;;;;;6.33;5.83;;;27.50;54.00;;;;;;10453502;28;20225;-82
2022/07/28 17:27:09;;;;;;;6.50;6.00;;;27.50;56.90;;;;;;10452753;28;20570;-80
2022/07/28 17:32:13;;;;;;;7.90;6.70;;;27.50;55.60;;;;;;10458171;28;20735;-79
2022/07/28 17:37:15;;;;;;;6.57;6.07;;;27.40;57.70;;;;;;10461698;28;20205;-79
2022/07/28 17:42:17;;;;;;;6.17;5.77;;;27.30;58.80;;;;;;10472472;28;20217;-80
2022/07/28 17:47:24;;;;;;;7.23;6.80;;;27.20;63.20;;;;;;10468184;28;20193;-80
2022/07/28 17:52:26;;;;;;;5.50;5.20;;;27.20;63.10;;;;;;10463926;28;20222;-81
2022/07/28 17:57:30;;;;;;;6.63;6.20;;;27.00;57.40;;;;;;10467878;28;20212;-81
2022/07/28 18:02:37;;;;;;;5.30;4.90;;;27.00;58.50;;;;;;10476403;28;20232;-80
2022/07/28 18:07:39;;;;;;;6.50;6.00;;;26.90;62.10;;;;;;10458926;28;20208;-81
2022/07/28 18:12:42;;;;;;;6.50;6.00;;;26.90;59.70;;;;;;10460889;28;20247;-79
2022/07/28 18:17:45;;;;;;;6.50;6.10;;;26.90;60.80;;;;;;10459261;28;20674;-79
2022/07/28 18:22:47;;;;;;;5.50;5.10;;;26.80;59.90;;;;;;10432549;28;20225;-79
2022/07/28 18:27:51;;;;;;;5.90;5.40;;;26.80;60.00;;;;;;10453086;28;20208;-78
2022/07/28 18:32:55;;;;;;;5.67;5.27;;;26.70;60.80;;;;;;10451504;28;20224;-80
2022/07/28 18:37:57;;;;;;;5.50;5.20;;;26.70;58.40;;;;;;10452645;28;20523;-79
2022/07/28 18:42:59;;;;;;;6.03;5.50;;;26.70;59.10;;;;;;10430608;28;20322;-79
2022/07/28 18:48:03;;;;;;;5.07;4.87;;;26.60;59.10;;;;;;10411285;28;20593;-79
2022/07/28 18:53:05;;;;;;;5.27;4.87;;;26.70;60.10;;;;;;10444750;28;20305;-81
2022/07/28 18:58:07;;;;;;;5.00;4.70;;;26.70;59.70;;;;;;10417805;28;20281;-80
2022/07/28 19:03:10;;;;;;;6.40;5.90;;;26.60;60.40;;;;;;10484551;22;20699;-81
2022/07/28 19:08:14;;;;;;;6.50;6.00;;;26.50;60.20;;;;;;10463778;28;20200;-81
2022/07/28 19:13:16;;;;;;;6.10;5.60;;;26.50;65.40;;;;;;10454783;28;20316;-81
2022/07/28 19:18:20;;;;;;;7.80;7.10;;;26.40;61.40;;;;;;10440747;28;20189;-81
2022/07/28 19:23:23;;;;;;;5.33;4.93;;;26.40;59.30;;;;;;10439795;28;20624;-81
2022/07/28 19:28:25;;;;;;;5.77;5.37;;;26.40;62.00;;;;;;10437605;28;20684;-81
2022/07/28 19:33:30;;;;;;;6.17;5.60;;;26.40;60.30;;;;;;10447626;28;20221;-81
2022/07/28 19:38:32;;;;;;;5.93;5.53;;;26.30;60.40;;;;;;10482105;28;20193;-82
2022/07/28 19:43:34;;;;;;;5.70;5.30;;;26.40;59.40;;;;;;10460972;28;20300;-82
2022/07/28 19:48:38;;;;;;;5.87;5.43;;;26.40;59.20;;;;;;10452868;28;20212;-82
2022/07/28 19:53:41;;;;;;;6.17;5.70;;;26.30;59.30;;;;;;10472144;28;20568;-82
2022/07/28 19:58:44;;;;;;;6.40;5.80;;;26.30;62.30;;;;;;10450630;28;20260;-82
2022/07/28 20:03:47;;;;;;;5.77;5.27;;;26.20;63.60;;;;;;10472085;28;20707;-82
2022/07/28 20:08:49;;;;;;;5.40;5.10;;;26.20;59.10;;;;;;10464300;28;20612;-81
2022/07/28 20:13:52;;;;;;;6.20;5.70;;;26.10;65.70;;;;;;10449839;28;20244;-81
2022/07/28 20:18:56;;;;;;;6.60;6.20;;;25.70;65.70;;;;;;10450894;28;20201;-81
2022/07/28 20:23:58;;;;;;;6.67;6.13;;;25.40;71.60;;;;;;10453402;28;20659;-81
2022/07/28 20:29:01;;;;;;;6.37;5.83;;;25.10;70.30;;;;;;10448528;28;20582;-81
2022/07/28 20:34:05;;;;;;;10.53;6.60;;;24.90;72.60;;;;;;10449744;28;20217;-81
2022/07/28 20:39:07;;;;;;;11.43;10.07;;;24.90;74.50;;;;;;10420070;28;20220;-81
2022/07/28 20:44:09;;;;;;;16.80;15.60;;;24.80;79.50;;;;;;10455632;28;20308;-82
2022/07/28 20:49:13;;;;;;;18.87;17.70;;;24.20;88.00;;;;;;10430847;28;20296;-82
2022/07/28 20:54:15;;;;;;;20.47;19.17;;;23.30;93.30;;;;;;10432060;28;20236;-82
2022/07/28 20:59:17;;;;;;;17.70;16.80;;;22.70;97.00;;;;;;10452571;28;20247;-82
2022/07/28 21:04:21;;;;;;;18.13;17.10;;;22.30;99.70;;;;;;10431619;28;20244;-82
2022/07/28 21:09:24;;;;;;;18.87;17.67;;;21.90;99.90;;;;;;10431194;28;20288;-82
2022/07/28 21:14:26;;;;;;;18.40;17.40;;;21.80;99.90;;;;;;10440489;28;20223;-82
2022/07/28 21:19:29;;;;;;;19.93;18.63;;;21.70;99.90;;;;;;10473861;28;20229;-81
2022/07/28 21:24:31;;;;;;;19.30;18.20;;;21.80;99.90;;;;;;10429693;28;20249;-82
2022/07/28 21:29:33;;;;;;;19.90;18.60;;;21.90;99.90;;;;;;10464386;28;20198;-82
2022/07/28 21:34:37;;;;;;;17.70;16.70;;;22.00;99.90;;;;;;10438290;28;20213;-81
2022/07/28 21:39:39;;;;;;;17.70;16.37;;;22.10;99.90;;;;;;10430170;28;20208;-82
2022/07/28 21:44:41;;;;;;;17.37;16.40;;;22.00;99.90;;;;;;10453360;28;20217;-81
2022/07/28 21:49:45;;;;;;;15.57;14.57;;;22.10;99.90;;;;;;10444228;28;20204;-82
2022/07/28 21:54:47;;;;;;;16.83;15.83;;;22.10;99.90;;;;;;10464782;28;20224;-82
2022/07/28 21:59:49;;;;;;;16.40;15.20;;;22.10;99.90;;;;;;10440925;28;20239;-81
2022/07/28 22:04:52;;;;;;;15.77;14.77;;;22.10;99.90;;;;;;10428267;28;20225;-81
2022/07/28 22:09:54;;;;;;;17.20;16.17;;;22.10;99.90;;;;;;10441173;28;20201;-81
2022/07/28 22:14:56;;;;;;;16.00;15.00;;;22.10;99.90;;;;;;10453181;28;20221;-81
2022/07/28 22:20:00;;;;;;;15.10;14.10;;;22.10;99.90;;;;;;10448780;28;20220;-82
2022/07/28 22:25:02;;;;;;;14.83;14.03;;;22.10;99.90;;;;;;10454052;28;20225;-82
2022/07/28 22:30:06;;;;;;;16.20;15.30;;;22.10;99.90;;;;;;10471638;28;20257;-82
2022/07/28 22:35:09;;;;;;;14.43;13.63;;;22.10;99.90;;;;;;10466577;28;20307;-81
2022/07/28 22:40:12;;;;;;;15.53;14.73;;;22.10;99.90;;;;;;10441385;28;20201;-83
2022/07/28 22:45:15;;;;;;;16.20;15.20;;;22.10;99.90;;;;;;10441963;28;20661;-84
2022/07/28 22:50:18;;;;;;;15.23;14.23;;;22.10;99.90;;;;;;10455020;28;20239;-84
2022/07/28 22:55:21;;;;;;;13.60;12.70;;;22.10;99.90;;;;;;10417694;28;20272;-84
2022/07/28 23:00:23;;;;;;;11.73;10.90;;;22.10;99.90;;;;;;10462074;28;20211;-84
2022/07/28 23:05:34;;;;;;;12.20;11.40;;;22.10;99.90;;;;;;10441612;28;20588;-81
2022/07/28 23:10:36;;;;;;;11.30;10.40;;;22.10;99.90;;;;;;10452737;28;20288;-81
2022/07/28 23:15:38;;;;;;;9.00;8.40;;;22.10;99.90;;;;;;10437241;28;20337;-81
2022/07/28 23:20:45;;;;;;;8.80;8.20;;;22.20;99.90;;;;;;10447633;28;20197;-81
2022/07/28 23:25:47;;;;;;;8.37;7.77;;;22.20;99.90;;;;;;10438789;28;20296;-83
2022/07/28 23:31:17;;;;;;;8.10;7.50;;;22.20;99.90;;;;;;10433128;28;20297;-83
2022/07/28 23:36:21;;;;;;;8.77;8.17;;;22.30;99.90;;;;;;10438403;28;20268;-83
2022/07/28 23:41:23;;;;;;;9.03;8.50;;;22.30;99.90;;;;;;10427888;28;20205;-83
2022/07/28 23:46:25;;;;;;;8.67;8.00;;;22.40;99.90;;;;;;10453845;28;20304;-85
2022/07/28 23:51:29;;;;;;;9.03;8.23;;;22.40;99.90;;;;;;10431217;28;20260;-83
2022/07/28 23:56:31;;;;;;;9.07;8.27;;;22.40;99.90;;;;;;10468754;28;20272;-81
